Minerva Concert — SVWC — position and weather

sailwx.info

Track history (hours):
 
Tides and Currents Weather Stations Pressure Air Temp Water Temp Dewpoint Dewpoint Depression Visibility Wind Speed Wind Dir Waves Ship Positions

Minerva Concert

Last reported at 2015-Mar-29 21:32 UTC. Time now 2015-Mar-29 22:30 UTC.
Position N 36°06' W 005°24'.

Length 241 m; draft 8.2 m.

Type: Tanker. MMSI: 240110000.

Date/timePositionNaut miles runAvg speedWind from/ knotsBaromVisibWave heightAir tempDewpointWater temp
2015-Mar-29 21:32N 36°06' W 005°24'0 0.1
2015-Mar-29 20:32N 36°06' W 005°24'0 0.1
2015-Mar-29 19:34N 36°06' W 005°24'5 4.6
2015-Mar-29 18:33N 36°05' W 005°19'5 4.6
2015-Mar-29 17:34N 36°06' W 005°13'171 9.9
2015-Mar-29 00:12N 36°38' W 001°44'710.1
2015-Mar-28 23:31N 36°41' W 001°37'1010.1
2015-Mar-28 22:33N 36°46' W 001°26'1110.4
2015-Mar-28 21:29N 36°52' W 001°14'910.2
2015-Mar-28 20:33N 36°56' W 001°04'1110.6
2015-Mar-28 19:31N 37°02' W 000°52'1010.1
2015-Mar-28 18:33N 37°07' W 000°41'1010.0
2015-Mar-28 17:33N 37°12' W 000°30'10 9.6
2015-Mar-28 16:33N 37°16' W 000°20'9 8.9
2015-Mar-28 15:33N 37°21' W 000°10'9 8.8
2015-Mar-28 14:33N 37°25' W 000°00'9 8.9
2015-Mar-28 13:33N 37°32' E 000°06'13 9.6
2015-Mar-28 12:08N 37°45' E 000°12'12210.4
2015-Mar-28 00:20N 39°40' E 001°03'810.9
2015-Mar-27 23:34N 39°48' E 001°08'1110.7
2015-Mar-27 22:34N 39°58' E 001°13'1211.2
2015-Mar-27 21:31N 40°09' E 001°19'1010.8
2015-Mar-27 20:33N 40°18' E 001°23'1010.4
2015-Mar-27 19:34N 40°28' E 001°28'10 9.9
2015-Mar-27 18:34N 40°38' E 001°32'9 8.6
2015-Mar-27 17:32N 40°46' E 001°32'10 9.8
2015-Mar-27 16:30N 40°55' E 001°24'1010.0
2015-Mar-27 15:30N 41°03' E 001°17'1 0.6
2015-Mar-27 14:08N 41°04' E 001°16'  
2015-Mar-24 15:21N 41°04' E 001°17'0 0.0
2015-Mar-22 15:13N 41°04' E 001°17'0 0.0
2015-Mar-22 08:13N 41°04' E 001°17'0 0.0
2015-Mar-21 22:19N 41°04' E 001°17'0 0.0
2015-Mar-21 18:13N 41°04' E 001°17'0 0.0
2015-Mar-21 14:18N 41°04' E 001°17'0 0.0
2015-Mar-21 13:33N 41°04' E 001°17'1 0.9
2015-Mar-21 12:11N 41°03' E 001°17'6 9.8
2015-Mar-21 11:33N 40°58' E 001°22'1413.6
2015-Mar-21 10:33N 40°46' E 001°31'1211.9
2015-Mar-21 09:33N 40°34' E 001°31'1312.7
2015-Mar-21 08:33N 40°22' E 001°26'1312.9
2015-Mar-21 07:33N 40°10' E 001°19'1313.1
2015-Mar-21 06:33N 39°58' E 001°14'1413.3
2015-Mar-21 05:32N 39°45' E 001°08'2613.2
2015-Mar-21 03:32N 39°20' E 000°56'15912.1
2015-Mar-20 14:23N 36°59' W 000°37'1011.9
2015-Mar-20 13:33N 36°54' W 000°47'  
Track history (hours):
 
Tides and Currents Weather Stations Pressure Air Temp Water Temp Dewpoint Dewpoint Depression Visibility Wind Speed Wind Dir Waves Ship Positions

Minerva Concert

Last reported at 2015-Mar-29 21:32 UTC. Time now 2015-Mar-29 22:30 UTC.
Position N 36°06' W 005°24'.

Length 241 m; draft 8.2 m.

Type: Tanker. MMSI: 240110000.

Date/timePositionNaut miles runAvg speedWind from/ knotsBaromVisibWave heightAir tempDewpointWater temp
2015-Mar-29 21:32N 36°06' W 005°24'0 0.1
2015-Mar-29 20:32N 36°06' W 005°24'0 0.1
2015-Mar-29 19:34N 36°06' W 005°24'5 4.6
2015-Mar-29 18:33N 36°05' W 005°19'5 4.6
2015-Mar-29 17:34N 36°06' W 005°13'171 9.9
2015-Mar-29 00:12N 36°38' W 001°44'710.1
2015-Mar-28 23:31N 36°41' W 001°37'1010.1
2015-Mar-28 22:33N 36°46' W 001°26'1110.4
2015-Mar-28 21:29N 36°52' W 001°14'910.2
2015-Mar-28 20:33N 36°56' W 001°04'1110.6
2015-Mar-28 19:31N 37°02' W 000°52'1010.1
2015-Mar-28 18:33N 37°07' W 000°41'1010.0
2015-Mar-28 17:33N 37°12' W 000°30'10 9.6
2015-Mar-28 16:33N 37°16' W 000°20'9 8.9
2015-Mar-28 15:33N 37°21' W 000°10'9 8.8
2015-Mar-28 14:33N 37°25' W 000°00'9 8.9
2015-Mar-28 13:33N 37°32' E 000°06'13 9.6
2015-Mar-28 12:08N 37°45' E 000°12'12210.4
2015-Mar-28 00:20N 39°40' E 001°03'810.9
2015-Mar-27 23:34N 39°48' E 001°08'1110.7
2015-Mar-27 22:34N 39°58' E 001°13'1211.2
2015-Mar-27 21:31N 40°09' E 001°19'1010.8
2015-Mar-27 20:33N 40°18' E 001°23'1010.4
2015-Mar-27 19:34N 40°28' E 001°28'10 9.9
2015-Mar-27 18:34N 40°38' E 001°32'9 8.6
2015-Mar-27 17:32N 40°46' E 001°32'10 9.8
2015-Mar-27 16:30N 40°55' E 001°24'1010.0
2015-Mar-27 15:30N 41°03' E 001°17'1 0.6
2015-Mar-27 14:08N 41°04' E 001°16'  
2015-Mar-24 15:21N 41°04' E 001°17'0 0.0
2015-Mar-22 15:13N 41°04' E 001°17'0 0.0
2015-Mar-22 08:13N 41°04' E 001°17'0 0.0
2015-Mar-21 22:19N 41°04' E 001°17'0 0.0
2015-Mar-21 18:13N 41°04' E 001°17'0 0.0
2015-Mar-21 14:18N 41°04' E 001°17'0 0.0
2015-Mar-21 13:33N 41°04' E 001°17'1 0.9
2015-Mar-21 12:11N 41°03' E 001°17'6 9.8
2015-Mar-21 11:33N 40°58' E 001°22'1413.6
2015-Mar-21 10:33N 40°46' E 001°31'1211.9
2015-Mar-21 09:33N 40°34' E 001°31'1312.7
2015-Mar-21 08:33N 40°22' E 001°26'1312.9
2015-Mar-21 07:33N 40°10' E 001°19'1313.1
2015-Mar-21 06:33N 39°58' E 001°14'1413.3
2015-Mar-21 05:32N 39°45' E 001°08'2613.2
2015-Mar-21 03:32N 39°20' E 000°56'15912.1
2015-Mar-20 14:23N 36°59' W 000°37'1011.9
2015-Mar-20 13:33N 36°54' W 000°47'  

Dump ship's entire track history